Terminal Aerodrome Forecast
Issued by NWS Grand Forks, ND

Home | Current Version | Previous Version | Text Only | Print | Product List | Glossary Off
Versions: 1 2 3 4 5 6 7 8 9 10 11 12 13 14 15 16 17 18 19 20 21 22

000
FTUS43 KFGF 301227 AAA
TAFGFK
TAF AMD
KGFK 301227Z 3012/3112 18013KT P6SM BKN250
      TEMPO 3012/3014 BKN006
     FM301700 18019G25KT P6SM SCT250
     FM310300 18015KT P6SM BKN200=

USA.gov is the U.S. government's official web portal to all federal, state and local government web resources and services.